Halle Kroellwitz, Germany

5:06 AM CEST on August 28, 2015 (GMT +0200)
Halle, Paulusviertel | | Change Station
CLOSE
Current Station
Personal Weather Station
Location: Halle (Saale), SAXONY-ANHALT
Elevation: 361 ft
Nearby Weather Stations

Elev 361 ft 51.50 °N, 11.97 °E | Updated 3 seconds ago

Light Rain
Light Rain
64.6 °F
Feels Like 64.6 °F
N
0.2
Wind Variable Wind from SSW
Gusts 2.5 mph

Today
High -- | Low -- °F
--% Chance of Precip.
Yesterday
High -- | Low -- °F
Precip. -- in
6:17 AM 8:08 PM
Waxing Gibbous, 96% visible
Pressure 29.89 in
Visibility 6.2 miles
Clouds Scattered Clouds 1200 ft
Mostly Cloudy 3500 ft
Dew Point 64 °F
Humidity 97%
Rainfall 0.22 in
Snow Depth Not available.
UV 0.0 out of 12
Pollen Not available.
Air Quality Not available.
Flu Activity Not available.
METAR EDDP 280250Z 19008KT 9999 -RA SCT012 BKN035 17/17 Q1012 BECMG BKN012
Pressure 29.89 in
Visibility 6.2 miles
Clouds Scattered Clouds 1200 ft
Mostly Cloudy 3500 ft
Dew Point 64 °F
Humidity 97%
Rainfall 0.22 in
Snow Depth Not available.
UV 0.0 out of 12
Pollen Not available.
Air Quality Not available.
Flu Activity Not available.
METAR EDDP 280250Z 19008KT 9999 -RA SCT012 BKN035 17/17 Q1012 BECMG BKN012

10-Day Weather Forecast

×

Almanac

Astronomy

Aug. 28, 2015 Rise Set
Actual Time
Civil Twilight
Nautical Twilight
Astronomical Twilight
Moon
Length of Visible Light
Length of Day
Tomorrow will be .
, % of the Moon is Illuminated

Today's Extremes

Country Highs Country Lows

Community

WunderPhotos

Upload Photos

1,850,310 photos uploaded!

WunderBlogs® & News

Nearby

Air Quality

  Air Quality AQ Index Pollutant
Not available.

Snow Depth

Station Depth Elevation

Earthquake Activity

City Distance Mag. Time & Date
Minimum magnitude displayed is 2.5.

Coastal Water Temperatures

Place Temperature

Stations

Nearby Weather Stations

Station Location Temp. Windchill Dew Point Humidity Wind Precip. Elev Updated Type